• Join FlightAware (Why Join?)
  • Login
  • US Flag 
01:41AM EDT


 

Airport Tracker/Info


-or-


 

Live Flight TrackerFlight Track Log ✈ RPA3392 ✈ 30-Apr-2013 ✈ KMSP - KDCA

Flight Track Log - Related Links

Times and Time Zones

All times are in EDT time to prevent confusion due to time zone crossing. See the RPA3392 flight status page for this flight to view local times or setup timezone preferences in your user account.

Time Position Orientation Groundspeed Altitude Reporting Facility
EDT Latitude Longitude Course Direction KTS MPH feet Rate Location/Type
05:50PM 44.9000 -93.2333 117° Southeast 165 190 2,100  Level Minneapolis TRACON
05:51PM 44.9392 -93.2322 North 178 205 2,900 1,260 Climbing Minneapolis Center
05:52PM 44.7556 -92.7614 111° Southeast  Level Estimated
05:52PM 44.9786 -93.1944 34° Northeast 240 276 4,300  Level Minneapolis Center
05:53PM 44.7131 -92.6083 113° Southeast  Level Estimated
05:53PM 44.9381 -93.0786 116° Southeast 282 325 6,900  Level Minneapolis Center
05:54PM 44.6704 -92.4555 125° Southeast  Level Estimated
05:54PM 44.8931 -92.9728 121° Southeast 308 354 9,500  Level Minneapolis Center
05:55PM 44.6274 -92.3030 117° Southeast  Level Estimated
05:55PM 44.8453 -92.8633 122° Southeast 322 371 11,800  Level Minneapolis Center
05:56PM 44.7883 -92.7267 120° Southeast 336 387 14,200 1,800 Climbing Minneapolis Center
05:57PM 44.7378 -92.6006 119° Southeast 369 425 15,600 1,500 Climbing Minneapolis Center
05:58PM 44.6864 -92.4711 119° Southeast 378 435 17,300 1,500 Climbing Minneapolis Center
05:59PM 44.6325 -92.3408 120° Southeast 384 442 18,700 1,200 Climbing Minneapolis Center
06:00PM 44.5769 -92.2008 119° Southeast 405 466 19,800 1,080 Climbing Minneapolis Center
06:01PM 44.5186 -92.0561 119° Southeast 424 488 21,000 1,260 Climbing Minneapolis Center
06:02PM 44.4469 -91.8806 120° Southeast 432 497 22,500 1,260 Climbing Minneapolis Center
06:03PM 44.3867 -91.7331 120° Southeast 437 503 23,700 1,020 Climbing Minneapolis Center
06:04PM 44.3247 -91.5842 120° Southeast 442 509 24,700 960 Climbing Minneapolis Center
06:05PM 44.2631 -91.4336 120° Southeast 446 513 25,800 1,140 Climbing Minneapolis Center
06:06PM 44.1964 -91.2744 120° Southeast 452 520 27,100 1,020 Climbing Minneapolis Center
06:07PM 44.1339 -91.1228 120° Southeast 454 522 27,900 1,260 Climbing Minneapolis Center
06:08PM 44.0717 -90.9742 120° Southeast 450 518 29,700 1,260 Climbing Minneapolis Center
06:09PM 44.0089 -90.8258 120° Southeast 449 517 30,600 780 Climbing Minneapolis Center
06:10PM 43.9564 -90.7039 121° Southeast 458 527 31,400 1,260 Climbing Minneapolis Center
06:11PM 43.8744 -90.5114 121° Southeast 452 520 33,300 1,260 Climbing Minneapolis Center
06:12PM 43.8225 -90.3869 120° Southeast 448 516 34,100 780 Climbing Minneapolis Center
06:13PM 43.7372 -90.1917 121° Southeast 447 514 35,000 420 Climbing Minneapolis Center
06:14PM 43.6739 -90.0464 121° Southeast 444 511 35,000  Level Minneapolis Center
06:15PM 43.6117 -89.8986 120° Southeast 444 511 35,000  Level Minneapolis Center
06:17PM 43.5511 -89.7153 114° Southeast 449 517 35,000  Level Chicago Center
06:18PM 43.4975 -89.5608 116° Southeast 448 516 35,000  Level Chicago Center
06:19PM 43.4444 -89.4053 115° Southeast 449 517 35,000  Level Chicago Center
06:20PM 43.3817 -89.2244 115° Southeast 450 518 35,000  Level Chicago Center
06:21PM 43.3278 -89.0686 115° Southeast 453 521 35,000  Level Chicago Center
06:22PM 43.2742 -88.9136 115° Southeast 453 521 35,000  Level Chicago Center
06:23PM 43.2203 -88.7597 116° Southeast 452 520 35,000  Level Chicago Center
06:24PM 43.1578 -88.5819 116° Southeast 449 517 35,000  Level Chicago Center
06:25PM 43.1050 -88.4303 115° Southeast 448 516 35,000  Level Chicago Center
06:26PM 43.0508 -88.2781 116° Southeast 446 513 35,000  Level Chicago Center
06:27PM 42.9969 -88.1264 116° Southeast 446 513 35,000  Level Chicago Center
06:28PM 42.9436 -87.9772 116° Southeast 441 507 35,000  Level Chicago Center
06:29PM 42.8803 -87.8025 116° Southeast 441 507 35,000  Level Chicago Center
06:30PM 42.8244 -87.6528 117° Southeast 444 511 35,000  Level Chicago Center
06:31PM 42.7689 -87.5003 116° Southeast 448 516 35,000  Level Chicago Center
06:32PM 42.7092 -87.3364 116° Southeast 446 513 35,000  Level Chicago Center
06:33PM 42.6556 -87.1911 117° Southeast 437 503 35,000  Level Chicago Center
06:34PM 42.6011 -87.0456 117° Southeast 435 501 35,000  Level Chicago Center
06:35PM 42.5442 -86.8956 117° Southeast 441 507 35,000  Level Chicago Center
06:36PM 42.4892 -86.7492 117° Southeast 439 505 35,000  Level Chicago Center
06:37PM 42.4258 -86.5797 117° Southeast 433 498 35,000  Level Chicago Center
06:38PM 42.3703 -86.4339 117° Southeast 437 503 35,000  Level Chicago Center
06:39PM 42.3150 -86.2881 117° Southeast 438 504 35,000  Level Chicago Center
06:40PM 42.2547 -86.1317 117° Southeast 441 507 35,000  Level Chicago Center
06:41PM 42.1989 -85.9861 117° Southeast 438 504 35,000  Level Chicago Center
06:42PM 42.1344 -85.8239 118° Southeast 441 507 35,000  Level Chicago Center
06:43PM 42.0783 -85.6794 118° Southeast 439 505 35,000  Level Chicago Center
06:44PM 42.0222 -85.5347 118° Southeast 438 504 35,000  Level Chicago Center
06:46PM 41.9597 -85.3733 117° Southeast 438 504 35,000  Level Chicago Center
06:46PM 41.9375 -85.3097 115° Southeast 453 521 35,000  Level Cleveland Center
06:47PM 41.8767 -85.1628 119° Southeast 453 521 35,000  Level Cleveland Center
06:48PM 41.8219 -85.0169 117° Southeast 448 516 35,000  Level Cleveland Center
06:49PM 41.7647 -84.8764 119° Southeast 448 516 35,000  Level Cleveland Center
06:50PM 41.7056 -84.7333 119° Southeast 443 510 35,000  Level Cleveland Center
06:51PM 41.6481 -84.5906 118° Southeast 443 510 35,000  Level Cleveland Center
06:52PM 41.5903 -84.4508 119° Southeast 443 510 35,000  Level Cleveland Center
06:53PM 41.5553 -84.3647 118° Southeast 435 501 35,000  Level Chicago Center
06:53PM 41.5344 -84.3089 116° Southeast 438 504 35,000  Level Cleveland Center
06:54PM 41.4664 -84.1525 120° Southeast 438 504 35,000  Level Cleveland Center
06:55PM 41.4061 -84.0133 120° Southeast 438 504 35,000  Level Cleveland Center
06:56PM 41.3500 -83.8694 117° Southeast 438 504 35,000  Level Cleveland Center
06:57PM 41.2892 -83.7308 120° Southeast 438 504 35,000  Level Cleveland Center
06:58PM 41.2283 -83.5844 119° Southeast 438 504 35,000  Level Cleveland Center
06:59PM 41.1694 -83.4408 119° Southeast 438 504 35,000  Level Cleveland Center
07:00PM 41.1106 -83.3006 119° Southeast 438 504 35,000  Level Cleveland Center
07:01PM 41.0531 -83.1631 119° Southeast 438 504 35,000  Level Cleveland Center
07:02PM 40.9897 -83.0175 120° Southeast 443 510 35,000  Level Cleveland Center
07:04PM 40.8900 -82.7792 119° Southeast 441 507 35,000  Level Indianapolis Center
07:05PM 40.8289 -82.6383 120° Southeast 440 506 35,000  Level Indianapolis Center
07:06PM 40.7700 -82.5011 120° Southeast 431 496 35,000  Level Indianapolis Center
07:07PM 40.7078 -82.3636 121° Southeast 435 501 35,000  Level Cleveland Center
07:08PM 40.6472 -82.2306 121° Southeast 451 519 35,000  Level Cleveland Center
07:09PM 40.5886 -82.0897 119° Southeast 443 510 35,000  Level Cleveland Center
07:10PM 40.5278 -81.9544 121° Southeast 438 504 35,000  Level Cleveland Center
07:11PM 40.4608 -81.8056 121° Southeast 433 498 35,000  Level Cleveland Center
07:12PM 40.4039 -81.6711 119° Southeast 428 493 35,000  Level Cleveland Center
07:13PM 40.3444 -81.5419 121° Southeast 423 487 35,000  Level Cleveland Center
07:14PM 40.2872 -81.4050 119° Southeast 423 487 35,000  Level Cleveland Center
07:15PM 40.2278 -81.2739 121° Southeast 423 487 35,000  Level Cleveland Center
07:16PM 40.1678 -81.1456 121° Southeast 423 487 35,000  Level Cleveland Center
07:17PM 40.1081 -81.0092 120° Southeast 423 487 35,000 -420 Level Cleveland Center
07:18PM 40.0481 -80.8786 121° Southeast 423 487 34,200 -960 Descending Cleveland Center
07:19PM 39.9753 -80.7539 127° Southeast 423 487 33,100 -600 Descending Cleveland Center
07:20PM 39.8919 -80.6372 133° Southeast 435 501 33,000 -300 Descending Cleveland Center
07:21PM 39.8086 -80.5264 134° Southeast 435 501 32,600 -900 Descending Cleveland Center
07:22PM 39.7272 -80.4103 132° Southeast 435 501 31,300 -840 Descending Cleveland Center
07:23PM 39.6436 -80.2947 133° Southeast 435 501 31,000 -180 Descending Cleveland Center
07:24PM 39.5475 -80.1669 134° Southeast 442 509 31,000  Level Washington Center
07:25PM 39.4664 -80.0542 133° Southeast 442 509 31,000  Level Washington Center
07:26PM 39.3831 -79.9417 134° Southeast 442 509 31,000  Level Washington Center
07:27PM 39.3081 -79.8244 130° Southeast 432 497 31,000  Level Washington Center
07:28PM 39.2861 -79.6756 101° East 405 466 31,000  Level Washington Center
07:29PM 39.2722 -79.5300 97° East 405 466 31,000 -420 Level Washington Center
07:30PM 39.2622 -79.3822 95° East 400 460 30,200 -1,560 Descending Washington Center
07:31PM 39.2464 -79.2206 97° East 411 473 27,900 -1,740 Descending Washington Center
07:32PM 39.2339 -79.0778 96° East 411 473 26,800 -1,140 Descending Washington Center
07:33PM 39.2214 -78.9353 96° East 411 473 25,700 -1,620 Descending Washington Center
07:34PM 39.2064 -78.7953 98° East 406 467 23,600 -2,100 Descending Washington Center
07:35PM 39.1933 -78.6608 97° East 398 458 21,500 -2,040 Descending Washington Center
07:36PM 39.1817 -78.5344 97° East 372 428 19,600 -1,920 Descending Washington Center
07:37PM 39.1664 -78.3972 98° East 372 428 17,800 -1,680 Descending Washington Center
07:38PM 39.1400 -78.2650 104° East 377 434 16,200 -1,320 Descending Washington Center
07:39PM 39.1075 -78.1408 109° East 372 428 15,200 -1,080 Descending Washington Center
07:40PM 39.0744 -78.0167 109° East 367 422 14,100 -1,140 Descending Washington Center
07:41PM 39.0456 -77.8981 107° East 367 422 13,000 -1,500 Descending Washington Center
07:42PM 39.0144 -77.7822 109° East 348 400 11,200 -1,020 Descending Washington Center
07:43PM 38.9911 -77.6856 107° East 327 376 11,000 -720 Descending Washington Center
07:44PM 38.9500 -77.5500 111° Southeast 297 342 9,600 -1,320 Descending Potomac TRACON
07:45PM 38.9167 -77.4500 113° Southeast 274 315 8,000 -1,440 Descending Potomac TRACON
07:46PM 38.8667 -77.3667 128° Southeast 271 312 6,700 -1,020 Descending Potomac TRACON
07:47PM 38.8333 -77.2833 117° Southeast 259 298 6,000 -420 Descending Potomac TRACON
07:48PM 38.8000 -77.2000 117° Southeast 260 299 6,000 -120 Level Potomac TRACON
07:49PM 38.7667 -77.1333 123° Southeast 195 224 5,800 -840 Descending Potomac TRACON
07:50PM 38.7333 -77.1167 159° South 196 226 4,400 -960 Descending Potomac TRACON
07:51PM 38.6833 -77.1167 180° South 204 235 4,000 -480 Descending Potomac TRACON
07:52PM 38.6500 -77.0833 142° Southeast 198 228 3,500 -840 Descending Potomac TRACON
07:53PM 38.6833 -77.0500 38° Northeast 178 205 2,400 -1,200 Descending Potomac TRACON